createdAt,value
2018-06-18T00:00:29.694Z,7.17
2018-06-18T00:02:31.737Z,7.40
2018-06-18T00:04:33.781Z,8.00
2018-06-18T00:06:35.849Z,7.00
2018-06-18T00:08:37.917Z,8.10
2018-06-18T00:10:40.035Z,7.47
2018-06-18T00:12:42.365Z,6.20
2018-06-18T00:14:44.433Z,7.37
2018-06-18T00:16:46.476Z,6.67
2018-06-18T00:18:48.566Z,6.17
2018-06-18T00:20:50.646Z,7.20
2018-06-18T00:22:52.735Z,6.90
2018-06-18T00:24:54.768Z,6.73
2018-06-18T00:26:56.841Z,7.20
2018-06-18T00:28:58.899Z,6.63
2018-06-18T00:31:00.982Z,7.40
2018-06-18T00:33:03.073Z,7.17
2018-06-18T00:35:05.269Z,6.70
2018-06-18T00:37:07.660Z,6.73
2018-06-18T00:39:09.730Z,7.57
2018-06-18T00:41:11.844Z,7.90
2018-06-18T00:43:13.947Z,6.70
2018-06-18T00:45:16.018Z,7.00
2018-06-18T00:47:18.143Z,7.27
2018-06-18T00:49:20.210Z,6.93
2018-06-18T00:51:22.269Z,6.67
2018-06-18T00:53:24.343Z,7.50
2018-06-18T00:55:38.098Z,7.37
2018-06-18T00:57:40.200Z,6.83
2018-06-18T00:59:42.342Z,7.30
2018-06-18T01:01:44.457Z,7.23
2018-06-18T01:03:46.530Z,7.53
2018-06-18T01:05:48.605Z,7.10
2018-06-18T01:07:50.705Z,7.77
2018-06-18T01:09:52.760Z,7.10
2018-06-18T01:11:54.808Z,7.83
2018-06-18T01:13:56.865Z,6.80
2018-06-18T01:15:58.964Z,7.23
2018-06-18T01:18:01.076Z,7.40
2018-06-18T01:20:03.131Z,7.93
2018-06-18T01:22:05.216Z,7.33
2018-06-18T01:24:18.675Z,7.10
2018-06-18T01:26:20.735Z,7.87
2018-06-18T01:28:22.814Z,8.03
2018-06-18T01:30:24.869Z,7.57
2018-06-18T01:32:26.939Z,8.67
2018-06-18T01:34:29.058Z,8.30
2018-06-18T01:36:31.101Z,9.37
2018-06-18T01:38:33.174Z,8.70
2018-06-18T01:40:35.245Z,8.10
2018-06-18T01:42:37.312Z,7.93
2018-06-18T01:44:39.373Z,8.10
2018-06-18T01:46:41.448Z,8.40
2018-06-18T01:48:43.488Z,9.00
2018-06-18T01:50:45.576Z,9.23
2018-06-18T01:52:47.687Z,8.50
2018-06-18T01:54:49.774Z,8.40
2018-06-18T01:56:51.825Z,9.10
2018-06-18T01:58:53.928Z,9.17
2018-06-18T02:00:56.013Z,10.70
2018-06-18T02:02:58.094Z,9.40
2018-06-18T02:05:00.184Z,9.70
2018-06-18T02:07:02.264Z,10.10
2018-06-18T02:09:07.378Z,11.50
2018-06-18T02:11:09.428Z,10.27
2018-06-18T02:13:11.539Z,10.53
2018-06-18T02:15:14.223Z,10.70
2018-06-18T02:17:16.321Z,11.10
2018-06-18T02:19:18.390Z,10.30
2018-06-18T02:21:20.434Z,11.10
2018-06-18T02:23:22.518Z,10.80
2018-06-18T02:25:24.582Z,11.07
2018-06-18T02:27:32.434Z,8.90
2018-06-18T02:29:40.192Z,10.40
2018-06-18T02:31:48.139Z,9.80
2018-06-18T02:33:56.023Z,10.63
2018-06-18T02:36:03.885Z,9.90
2018-06-18T02:38:11.680Z,9.93
2018-06-18T02:40:19.590Z,9.57
2018-06-18T02:42:21.765Z,9.90
2018-06-18T02:44:23.934Z,9.73
2018-06-18T02:46:26.059Z,9.60
2018-06-18T02:48:28.225Z,9.47
2018-06-18T02:50:30.419Z,9.70
2018-06-18T02:52:32.549Z,9.77
2018-06-18T02:54:34.716Z,9.80
2018-06-18T02:56:47.606Z,9.70
2018-06-18T02:58:49.664Z,8.90
2018-06-18T03:00:51.722Z,9.37
2018-06-18T03:02:53.837Z,9.53
2018-06-18T03:04:55.890Z,9.23
2018-06-18T03:06:57.933Z,8.97
2018-06-18T03:09:00.018Z,9.63
2018-06-18T03:11:02.124Z,8.93
2018-06-18T03:13:04.205Z,9.10
2018-06-18T03:15:06.281Z,7.90
2018-06-18T03:17:08.341Z,8.13
2018-06-18T03:19:16.276Z,8.03
2018-06-18T03:21:23.963Z,8.83
2018-06-18T03:23:31.854Z,8.20
2018-06-18T03:25:39.724Z,8.87
2018-06-18T03:27:47.578Z,9.13
2018-06-18T03:29:49.624Z,7.60
2018-06-18T03:31:53.634Z,8.20
2018-06-18T03:33:55.700Z,8.73
2018-06-18T03:35:57.757Z,8.40
2018-06-18T03:38:00.872Z,8.50
2018-06-18T03:40:02.962Z,8.73
2018-06-18T03:42:05.565Z,8.20
2018-06-18T03:44:10.295Z,8.98
2018-06-18T03:46:12.480Z,8.80
2018-06-18T03:48:14.577Z,9.40
2018-06-18T03:50:16.684Z,8.87
2018-06-18T03:52:19.313Z,7.90
2018-06-18T03:54:21.448Z,9.77
2018-06-18T03:56:23.501Z,8.63
2018-06-18T03:58:25.597Z,9.83
2018-06-18T04:00:31.274Z,8.27
2018-06-18T04:03:11.704Z,8.60
2018-06-18T04:05:19.677Z,9.40
2018-06-18T04:07:28.262Z,9.00
2018-06-18T04:09:36.146Z,8.60
2018-06-18T04:11:43.865Z,7.40
2018-06-18T04:13:45.973Z,8.40
2018-06-18T04:15:48.029Z,9.27
2018-06-18T04:17:50.126Z,8.80
2018-06-18T04:19:52.179Z,9.10
2018-06-18T04:21:54.252Z,8.60
2018-06-18T04:23:56.308Z,8.97
2018-06-18T04:25:58.359Z,8.60
2018-06-18T04:28:00.402Z,8.30
2018-06-18T04:30:02.510Z,8.43
2018-06-18T04:32:04.641Z,7.93
2018-06-18T04:34:14.417Z,7.20
2018-06-18T04:36:16.473Z,8.00
2018-06-18T04:38:18.525Z,7.20
2018-06-18T04:40:20.560Z,8.10
2018-06-18T04:42:28.286Z,8.40
2018-06-18T04:44:36.138Z,8.80
2018-06-18T04:46:43.800Z,8.20
2018-06-18T04:48:51.597Z,8.83
2018-06-18T04:50:59.827Z,8.17
2018-06-18T04:53:01.919Z,8.47
2018-06-18T04:55:03.995Z,8.80
2018-06-18T04:57:06.040Z,8.90
2018-06-18T04:59:08.093Z,9.10
2018-06-18T05:01:21.289Z,9.17
2018-06-18T05:03:23.381Z,8.27
2018-06-18T05:05:25.441Z,8.30
2018-06-18T05:07:27.518Z,8.60
2018-06-18T05:09:41.377Z,7.63
2018-06-18T05:11:43.464Z,8.30
2018-06-18T05:13:45.552Z,8.90
2018-06-18T05:15:47.989Z,9.20
2018-06-18T05:17:50.061Z,8.90
2018-06-18T05:19:52.210Z,9.07
2018-06-18T05:21:54.273Z,9.10
2018-06-18T05:23:56.345Z,9.38
2018-06-18T05:25:59.650Z,9.70
2018-06-18T05:28:01.719Z,10.13
2018-06-18T05:30:10.286Z,9.33
2018-06-18T05:32:12.394Z,9.27
2018-06-18T05:34:16.870Z,9.43
2018-06-18T05:36:18.974Z,10.00
2018-06-18T05:38:28.225Z,9.07
2018-06-18T05:40:30.286Z,7.80
2018-06-18T05:42:32.398Z,8.40
2018-06-18T05:44:34.497Z,6.43
2018-06-18T05:46:36.582Z,7.37
2018-06-18T05:48:38.681Z,6.57
2018-06-18T05:50:40.858Z,7.80
2018-06-18T05:52:42.881Z,6.90
2018-06-18T05:54:44.987Z,7.00
2018-06-18T05:56:47.059Z,7.93
2018-06-18T05:58:49.141Z,8.00
2018-06-18T06:00:51.200Z,7.50
2018-06-18T06:02:53.259Z,8.33
2018-06-18T06:04:55.322Z,6.33
2018-06-18T06:06:57.413Z,6.87
2018-06-18T06:08:59.533Z,6.23
2018-06-18T06:11:01.604Z,5.33
2018-06-18T06:13:04.125Z,6.30
2018-06-18T06:15:06.285Z,6.27
2018-06-18T06:17:08.382Z,6.40
2018-06-18T06:19:10.474Z,5.90
2018-06-18T06:21:13.456Z,5.50
2018-06-18T06:23:15.530Z,6.77
2018-06-18T06:25:17.615Z,6.40
2018-06-18T06:27:19.702Z,6.27
2018-06-18T06:29:21.826Z,6.50
2018-06-18T06:31:23.884Z,7.20
2018-06-18T06:33:26.568Z,6.80
2018-06-18T06:35:31.652Z,5.90
2018-06-18T06:37:33.788Z,5.70
2018-06-18T06:39:35.814Z,6.43
2018-06-18T06:41:39.179Z,6.00
2018-06-18T06:43:41.313Z,6.17
2018-06-18T06:45:43.377Z,6.27
2018-06-18T06:47:45.485Z,7.30
2018-06-18T06:49:47.551Z,5.40
2018-06-18T06:51:49.641Z,5.97
2018-06-18T06:53:51.729Z,6.50
2018-06-18T06:55:53.900Z,6.60
2018-06-18T06:57:55.949Z,6.77
2018-06-18T06:59:58.067Z,6.20
2018-06-18T07:02:00.205Z,5.80
2018-06-18T07:04:02.312Z,6.60
2018-06-18T07:06:04.409Z,5.87
2018-06-18T07:08:06.537Z,6.70
2018-06-18T07:10:08.783Z,5.70
2018-06-18T07:12:10.857Z,7.10
2018-06-18T07:14:12.940Z,6.13
2018-06-18T07:16:15.048Z,6.73
2018-06-18T07:18:17.223Z,6.90
2018-06-18T07:20:19.319Z,6.17
2018-06-18T07:22:21.377Z,6.27
2018-06-18T07:24:23.484Z,6.07
2018-06-18T07:26:25.595Z,6.17
2018-06-18T07:28:27.672Z,6.53
2018-06-18T07:30:29.913Z,6.80
2018-06-18T07:32:31.836Z,6.27
2018-06-18T07:34:33.953Z,6.50
2018-06-18T07:36:36.006Z,5.93
2018-06-18T07:38:38.093Z,6.27
2018-06-18T07:40:40.189Z,6.23
2018-06-18T07:42:42.269Z,7.10
2018-06-18T07:44:44.423Z,7.63
2018-06-18T07:46:46.581Z,6.40
2018-06-18T07:48:48.682Z,6.07
2018-06-18T07:50:50.838Z,6.13
2018-06-18T07:52:52.915Z,6.60
2018-06-18T07:54:55.522Z,6.83
2018-06-18T07:56:57.654Z,7.20
2018-06-18T07:58:59.776Z,7.57
2018-06-18T08:01:01.904Z,7.53
2018-06-18T08:03:04.057Z,6.60
2018-06-18T08:05:06.126Z,7.70
2018-06-18T08:07:08.225Z,8.10
2018-06-18T08:09:12.384Z,8.10
2018-06-18T08:11:14.468Z,6.97
2018-06-18T08:13:16.577Z,6.93
2018-06-18T08:15:18.679Z,6.67
2018-06-18T08:17:20.748Z,7.87
2018-06-18T08:19:22.905Z,6.20
2018-06-18T08:21:24.965Z,7.37
2018-06-18T08:23:27.069Z,7.23
2018-06-18T08:25:29.138Z,6.77
2018-06-18T08:27:31.244Z,6.40
2018-06-18T08:29:33.312Z,7.10
2018-06-18T08:31:35.470Z,7.13
2018-06-18T08:33:37.613Z,7.10
2018-06-18T08:35:39.707Z,6.27
2018-06-18T08:37:41.794Z,6.60
2018-06-18T08:39:43.894Z,5.50
2018-06-18T08:41:45.989Z,5.73
2018-06-18T08:43:48.076Z,5.43
2018-06-18T08:45:50.170Z,6.70
2018-06-18T08:47:52.249Z,6.27
2018-06-18T08:50:00.180Z,5.43
2018-06-18T08:53:08.538Z,6.63
2018-06-18T08:55:16.413Z,6.80
2018-06-18T09:21:02.822Z,6.40
2018-06-18T09:23:08.035Z,5.80
2018-06-18T09:25:10.098Z,6.40
2018-06-18T09:27:13.367Z,6.03
2018-06-18T09:29:15.521Z,6.23
2018-06-18T09:31:17.578Z,6.50
2018-06-18T09:33:19.731Z,6.30
2018-06-18T09:35:21.793Z,5.60
2018-06-18T09:37:23.938Z,7.43
2018-06-18T09:39:25.982Z,6.73
2018-06-18T09:41:28.028Z,6.80
2018-06-18T09:43:30.054Z,7.07
2018-06-18T09:45:32.117Z,7.20
2018-06-18T09:47:34.157Z,8.17
2018-06-18T09:49:41.920Z,7.87
2018-06-18T09:51:49.793Z,7.37
2018-06-18T09:53:57.910Z,6.70
2018-06-18T09:56:05.822Z,6.30
2018-06-18T09:58:13.692Z,6.50
2018-06-18T10:00:31.916Z,8.13
2018-06-18T10:02:33.961Z,7.77
2018-06-18T10:04:36.040Z,7.07
2018-06-18T10:06:38.509Z,6.50
2018-06-18T10:08:40.614Z,6.40
2018-06-18T10:10:42.641Z,7.30
2018-06-18T10:12:44.636Z,6.90
2018-06-18T10:14:47.006Z,6.80
2018-06-18T10:16:49.045Z,7.00
2018-06-18T10:18:51.087Z,6.27
2018-06-18T10:20:53.130Z,7.70
2018-06-18T10:22:55.277Z,7.30
2018-06-18T10:24:57.321Z,7.67
2018-06-18T10:26:59.376Z,7.80
2018-06-18T10:29:01.469Z,6.90
2018-06-18T10:31:03.578Z,7.00
2018-06-18T10:33:11.451Z,7.17
2018-06-18T10:35:19.200Z,6.93
2018-06-18T10:37:27.125Z,6.97
2018-06-18T10:39:34.994Z,6.57
2018-06-18T10:41:42.876Z,6.57
2018-06-18T10:43:44.932Z,7.30
2018-06-18T10:45:47.069Z,6.27
2018-06-18T10:47:49.255Z,6.43
2018-06-18T10:49:51.317Z,5.70
2018-06-18T10:51:53.371Z,5.80
2018-06-18T10:53:55.497Z,5.70
2018-06-18T10:55:57.657Z,5.30
2018-06-18T10:57:59.756Z,6.10
2018-06-18T11:00:02.010Z,5.77
2018-06-18T11:02:04.072Z,5.07
2018-06-18T11:04:10.749Z,5.93
2018-06-18T11:06:18.532Z,5.30
2018-06-18T11:08:20.627Z,4.97
2018-06-18T11:10:25.292Z,5.67
2018-06-18T11:12:27.342Z,5.60
2018-06-18T11:14:29.469Z,6.05
2018-06-18T11:16:31.753Z,5.80
2018-06-18T11:18:39.334Z,5.43
2018-06-18T11:20:47.233Z,5.37
2018-06-18T11:22:55.228Z,5.83
2018-06-18T11:25:03.046Z,6.17
2018-06-18T11:27:05.229Z,5.33
2018-06-18T11:29:07.254Z,5.97
2018-06-18T11:31:09.324Z,5.10
2018-06-18T11:33:11.409Z,5.20
2018-06-18T11:35:13.489Z,4.90
2018-06-18T11:37:15.559Z,5.70
2018-06-18T11:39:17.601Z,4.83
2018-06-18T11:41:19.701Z,4.83
2018-06-18T11:43:21.833Z,5.93
2018-06-18T11:45:23.864Z,5.03
2018-06-18T11:47:25.900Z,5.77
2018-06-18T11:49:27.964Z,5.60
2018-06-18T11:51:30.070Z,4.57
2018-06-18T11:53:32.131Z,5.00
2018-06-18T11:55:34.797Z,4.90
2018-06-18T11:57:37.943Z,5.47
2018-06-18T12:00:44.462Z,5.03
2018-06-18T12:02:52.285Z,5.43
2018-06-18T12:05:00.188Z,4.20
2018-06-18T12:07:08.291Z,4.80
2018-06-18T12:09:16.210Z,4.37
2018-06-18T12:11:18.313Z,4.47
2018-06-18T12:13:20.435Z,4.13
2018-06-18T12:15:22.485Z,4.00
2018-06-18T12:17:26.597Z,4.37
2018-06-18T12:19:28.644Z,4.03
2018-06-18T12:21:30.817Z,4.57
2018-06-18T12:23:32.909Z,3.90
2018-06-18T12:25:35.029Z,3.50
2018-06-18T12:27:41.886Z,3.70
2018-06-18T12:29:43.988Z,3.80
2018-06-18T12:31:46.082Z,3.90
2018-06-18T12:33:48.147Z,4.10
2018-06-18T12:35:50.206Z,4.20
2018-06-18T12:37:52.397Z,3.70
2018-06-18T12:39:54.434Z,3.97
2018-06-18T12:42:02.440Z,3.37
2018-06-18T12:44:04.522Z,3.40
2018-06-18T12:46:12.446Z,3.27
2018-06-18T12:48:20.239Z,3.67
2018-06-18T12:50:28.177Z,3.30
2018-06-18T12:52:36.045Z,3.40
2018-06-18T12:54:43.880Z,3.30
2018-06-18T12:56:51.733Z,3.00
2018-06-18T12:58:53.801Z,3.10
2018-06-18T13:00:55.857Z,3.87
2018-06-18T13:03:05.697Z,3.60
2018-06-18T13:05:07.815Z,3.63
2018-06-18T13:07:09.908Z,3.80
2018-06-18T13:09:12.031Z,3.37
2018-06-18T13:11:14.128Z,3.10
2018-06-18T13:13:16.255Z,3.47
2018-06-18T13:15:18.333Z,3.20
2018-06-18T13:17:20.414Z,3.00
2018-06-18T13:19:22.661Z,2.90
2018-06-18T13:21:24.744Z,3.00
2018-06-18T13:23:26.871Z,3.60
2018-06-18T13:25:28.963Z,3.20
2018-06-18T13:27:36.904Z,3.30
2018-06-18T13:29:39.031Z,2.73
2018-06-18T13:31:41.201Z,3.20
2018-06-18T13:33:43.294Z,3.30
2018-06-18T13:35:45.366Z,2.70
2018-06-18T13:37:53.068Z,3.00
2018-06-18T13:40:01.023Z,3.20
2018-06-18T13:42:08.961Z,3.10
2018-06-18T13:44:16.892Z,2.60
2018-06-18T13:46:24.819Z,2.97
2018-06-18T13:48:32.550Z,3.50
2018-06-18T13:50:34.608Z,3.03
2018-06-18T13:52:36.791Z,3.60
2018-06-18T13:54:38.801Z,3.87
2018-06-18T13:56:40.862Z,3.20
2018-06-18T13:58:42.946Z,3.00
2018-06-18T14:00:45.137Z,3.03
2018-06-18T14:02:48.657Z,2.93
2018-06-18T14:04:50.841Z,2.93
2018-06-18T14:06:52.954Z,2.87
2018-06-18T14:08:55.045Z,3.10
2018-06-18T14:10:57.137Z,3.60
2018-06-18T14:12:59.293Z,3.70
2018-06-18T14:15:01.438Z,3.63
2018-06-18T14:17:03.605Z,3.70
2018-06-18T14:19:11.625Z,3.87
2018-06-18T14:21:13.746Z,4.13
2018-06-18T14:23:15.960Z,3.97
2018-06-18T14:25:18.199Z,3.77
2018-06-18T14:27:20.351Z,3.97
2018-06-18T14:29:28.357Z,3.57
2018-06-18T14:31:36.185Z,4.00
2018-06-18T14:33:44.011Z,3.53
2018-06-18T14:35:51.966Z,4.77
2018-06-18T14:37:59.924Z,4.70
2018-06-18T14:40:05.826Z,4.10
2018-06-18T14:42:09.185Z,4.07
2018-06-18T14:44:11.225Z,3.70
2018-06-18T14:46:13.340Z,3.30
2018-06-18T14:48:15.454Z,4.43
2018-06-18T14:50:25.587Z,4.37
2018-06-18T14:52:27.786Z,3.93
2018-06-18T14:54:30.382Z,4.37
2018-06-18T14:56:34.789Z,4.43
2018-06-18T14:58:36.842Z,4.37
2018-06-18T15:00:38.914Z,4.17
2018-06-18T15:02:40.957Z,4.30
2018-06-18T15:04:43.005Z,4.20
2018-06-18T15:06:45.629Z,4.43
2018-06-18T15:08:47.675Z,4.00
2018-06-18T15:10:52.610Z,4.50
2018-06-18T15:12:58.718Z,4.50
2018-06-18T15:15:06.683Z,4.47
2018-06-18T15:17:08.903Z,4.60
2018-06-18T15:19:11.149Z,4.30
2018-06-18T15:21:13.215Z,4.30
2018-06-18T15:23:15.835Z,4.60
2018-06-18T15:25:17.994Z,5.03
2018-06-18T15:27:20.033Z,4.90
2018-06-18T15:29:22.156Z,5.40
2018-06-18T15:31:24.381Z,5.43
2018-06-18T15:33:26.728Z,5.43
2018-06-18T15:35:28.985Z,6.00
2018-06-18T15:37:31.136Z,5.70
2018-06-18T15:39:33.617Z,5.70
2018-06-18T15:41:35.783Z,5.70
2018-06-18T15:43:38.069Z,6.33
2018-06-18T15:45:40.216Z,7.20
2018-06-18T15:47:43.914Z,7.17
2018-06-18T15:49:46.035Z,7.30
2018-06-18T15:51:49.637Z,7.40
2018-06-18T15:53:54.694Z,6.47
2018-06-18T15:55:57.085Z,7.23
2018-06-18T15:57:59.319Z,6.80
2018-06-18T16:00:01.430Z,6.63
2018-06-18T16:02:03.574Z,6.47
2018-06-18T16:04:05.783Z,5.53
2018-06-18T16:06:08.691Z,6.43
2018-06-18T16:08:10.822Z,5.93
2018-06-18T16:10:12.966Z,6.17
2018-06-18T16:12:15.158Z,5.60
2018-06-18T16:14:17.393Z,6.37
2018-06-18T16:16:19.559Z,5.50
2018-06-18T16:18:21.793Z,6.13
2018-06-18T16:20:23.978Z,5.90
2018-06-18T16:22:26.144Z,5.87
2018-06-18T16:24:28.302Z,7.20
2018-06-18T16:26:31.114Z,5.80
2018-06-18T16:28:33.323Z,6.17
2018-06-18T16:30:35.686Z,5.43
2018-06-18T16:32:37.895Z,5.40
2018-06-18T16:34:40.058Z,6.60
2018-06-18T16:36:42.273Z,6.03
2018-06-18T16:38:44.403Z,6.70
2018-06-18T16:40:46.501Z,6.00
2018-06-18T16:42:48.669Z,7.30
2018-06-18T16:44:50.798Z,10.17
2018-06-18T16:46:52.914Z,9.40
2018-06-18T16:48:55.051Z,9.83
2018-06-18T16:50:57.223Z,11.77
2018-06-18T16:52:59.354Z,12.70
2018-06-18T16:55:01.446Z,13.17
2018-06-18T16:57:03.534Z,11.90
2018-06-18T16:59:05.621Z,12.00
2018-06-18T17:01:07.678Z,14.03
2018-06-18T17:03:09.753Z,14.07
2018-06-18T17:05:11.805Z,13.90
2018-06-18T17:07:13.868Z,14.53
2018-06-18T17:09:15.981Z,14.47
2018-06-18T17:11:18.061Z,15.53
2018-06-18T17:13:20.121Z,14.50
2018-06-18T17:15:22.161Z,12.50
2018-06-18T17:17:24.242Z,12.63
2018-06-18T17:19:26.301Z,12.33
2018-06-18T17:21:28.409Z,13.97
2018-06-18T17:23:30.539Z,14.03
2018-06-18T17:25:32.559Z,13.60
2018-06-18T17:27:34.742Z,12.53
2018-06-18T17:29:43.931Z,13.93
2018-06-18T17:31:47.522Z,12.10
2018-06-18T17:33:49.665Z,14.03
2018-06-18T17:35:51.855Z,13.10
2018-06-18T17:37:54.034Z,12.90
2018-06-18T17:39:56.061Z,12.00
2018-06-18T17:41:58.187Z,12.97
2018-06-18T17:44:00.251Z,13.07
2018-06-18T17:46:02.321Z,12.07
2018-06-18T17:48:04.407Z,13.00
2018-06-18T17:50:06.449Z,11.33
2018-06-18T17:52:08.506Z,10.93
2018-06-18T17:54:10.587Z,11.28
2018-06-18T17:56:12.679Z,11.67
2018-06-18T17:58:14.781Z,12.23
2018-06-18T18:00:16.842Z,11.13
2018-06-18T18:02:18.937Z,11.67
2018-06-18T18:04:21.026Z,10.90
2018-06-18T18:06:23.091Z,11.80
2018-06-18T18:08:25.148Z,9.50
2018-06-18T18:10:27.227Z,10.33
2018-06-18T18:12:29.254Z,9.57
2018-06-18T18:14:31.419Z,8.13
2018-06-18T18:16:33.488Z,8.30
2018-06-18T18:18:35.546Z,8.43
2018-06-18T18:20:37.624Z,7.67
2018-06-18T18:22:39.805Z,9.10
2018-06-18T18:24:41.857Z,8.90
2018-06-18T18:26:43.919Z,8.10
2018-06-18T18:28:46.053Z,8.70
2018-06-18T18:30:49.043Z,9.07
2018-06-18T18:32:51.249Z,8.10
2018-06-18T18:34:53.404Z,8.63
2018-06-18T18:36:55.503Z,9.50
2018-06-18T18:38:57.595Z,9.17
2018-06-18T18:40:59.661Z,8.57
2018-06-18T18:43:02.774Z,9.30
2018-06-18T18:47:38.023Z,8.50
2018-06-18T18:49:40.093Z,8.47
2018-06-18T18:51:42.192Z,8.83
2018-06-18T18:53:44.323Z,9.90
2018-06-18T18:55:59.508Z,9.50
2018-06-18T18:58:14.690Z,8.47
2018-06-18T19:00:16.879Z,8.80
2018-06-18T19:02:18.975Z,8.10
2018-06-18T19:04:23.557Z,8.30
2018-06-18T19:06:25.621Z,8.80
2018-06-18T19:08:30.006Z,8.53
2018-06-18T19:10:34.263Z,7.50
2018-06-18T19:12:36.344Z,8.50
2018-06-18T19:14:38.553Z,7.90
2018-06-18T19:16:40.790Z,7.93
2018-06-18T19:18:47.697Z,6.90
2018-06-18T19:20:53.380Z,8.20
2018-06-18T19:22:55.498Z,7.00
2018-06-18T19:24:57.550Z,8.00
2018-06-18T19:26:59.971Z,7.13
2018-06-18T19:29:02.028Z,7.97
2018-06-18T19:31:07.882Z,7.37
2018-06-18T19:33:21.446Z,5.50
2018-06-18T19:35:23.510Z,6.57
2018-06-18T19:37:25.589Z,6.80
2018-06-18T19:39:32.191Z,6.60
2018-06-18T19:41:34.292Z,7.10
2018-06-18T19:43:37.874Z,6.73
2018-06-18T19:45:43.145Z,6.50
2018-06-18T19:47:49.403Z,7.30
2018-06-18T19:49:51.731Z,7.07
2018-06-18T19:52:12.451Z,7.60
2018-06-18T19:54:18.155Z,6.90
2018-06-18T19:56:20.269Z,7.60
2018-06-18T19:58:23.782Z,6.80
2018-06-18T20:00:30.529Z,7.03
2018-06-18T20:02:32.598Z,6.97
2018-06-18T20:04:34.762Z,6.90
2018-06-18T20:06:36.826Z,7.27
2018-06-18T20:08:38.882Z,6.43
2018-06-18T20:10:40.990Z,7.03
2018-06-18T20:12:43.028Z,6.90
2018-06-18T20:14:45.089Z,6.83
2018-06-18T20:16:47.155Z,7.00
2018-06-18T20:18:49.226Z,6.70
2018-06-18T20:20:51.310Z,6.80
2018-06-18T20:22:53.382Z,6.73
2018-06-18T20:24:55.486Z,6.50
2018-06-18T20:26:57.534Z,6.33
2018-06-18T20:28:59.633Z,7.05
2018-06-18T20:31:01.734Z,6.10
2018-06-18T20:33:04.706Z,6.57
2018-06-18T20:35:12.098Z,7.07
2018-06-18T20:37:14.185Z,6.40
2018-06-18T20:39:16.327Z,7.57
2018-06-18T20:41:18.486Z,6.70
2018-06-18T20:43:21.966Z,6.43
2018-06-18T20:45:24.063Z,6.50
2018-06-18T20:47:26.193Z,6.90
2018-06-18T20:49:28.282Z,7.40
2018-06-18T20:51:30.532Z,6.67
2018-06-18T20:53:32.609Z,7.17
2018-06-18T20:55:35.450Z,6.57
2018-06-18T20:57:37.560Z,7.03
2018-06-18T20:59:42.894Z,6.10
2018-06-18T21:01:45.776Z,6.87
2018-06-18T21:03:48.117Z,7.43
2018-06-18T21:05:50.201Z,6.57
2018-06-18T21:07:52.299Z,7.50
2018-06-18T21:09:54.368Z,6.40
2018-06-18T21:11:57.810Z,7.80
2018-06-18T21:13:59.913Z,7.23
2018-06-18T21:16:01.988Z,8.17
2018-06-18T21:18:04.400Z,7.40
2018-06-18T21:20:07.070Z,7.20
2018-06-18T21:22:12.285Z,8.20
2018-06-18T21:24:14.380Z,8.00
2018-06-18T21:26:16.466Z,7.80
2018-06-18T21:30:53.910Z,7.03
2018-06-18T21:32:55.977Z,7.50
2018-06-18T21:34:58.028Z,7.60
2018-06-18T21:37:00.141Z,7.70
2018-06-18T21:39:03.083Z,7.90
2018-06-18T21:41:05.160Z,8.67
2018-06-18T21:43:07.228Z,7.90
2018-06-18T21:45:19.675Z,7.43
2018-06-18T21:47:21.738Z,8.57
2018-06-18T21:49:23.785Z,8.53
2018-06-18T21:51:25.846Z,8.10
2018-06-18T21:53:27.930Z,7.20
2018-06-18T21:55:30.003Z,7.90
2018-06-18T21:57:32.093Z,6.70
2018-06-18T21:59:34.348Z,7.60
2018-06-18T22:01:40.010Z,8.07
2018-06-18T22:03:42.129Z,7.77
2018-06-18T22:05:53.094Z,8.23
2018-06-18T22:07:55.354Z,9.47
2018-06-18T22:09:57.487Z,10.10
2018-06-18T22:11:59.628Z,9.50
2018-06-18T22:14:01.804Z,9.40
2018-06-18T22:16:03.977Z,10.27
2018-06-18T22:18:06.094Z,12.27
2018-06-18T22:20:08.175Z,15.90
2018-06-18T22:22:10.232Z,17.40
2018-06-18T22:24:12.253Z,18.10
2018-06-18T22:26:14.322Z,18.00
2018-06-18T22:28:25.705Z,17.13
2018-06-18T22:30:27.770Z,19.33
2018-06-18T22:32:29.872Z,18.30
2018-06-18T22:34:31.894Z,18.73
2018-06-18T22:36:33.952Z,18.07
2018-06-18T22:38:35.976Z,20.30
2018-06-18T22:40:38.041Z,19.00
2018-06-18T22:42:40.090Z,19.67
2018-06-18T22:44:42.137Z,19.30
2018-06-18T22:46:44.215Z,20.10
2018-06-18T22:48:46.271Z,18.43
2018-06-18T22:50:48.326Z,21.97
2018-06-18T22:52:50.497Z,22.37
2018-06-18T22:54:52.575Z,22.70
2018-06-18T22:56:54.669Z,20.63
2018-06-18T22:58:56.751Z,23.30
2018-06-18T23:00:59.512Z,22.83
2018-06-18T23:03:01.579Z,23.10
2018-06-18T23:05:03.638Z,23.00
2018-06-18T23:07:06.104Z,23.20
2018-06-18T23:09:10.004Z,22.17
2018-06-18T23:11:12.199Z,20.70
2018-06-18T23:13:15.608Z,23.70
2018-06-18T23:15:17.659Z,22.40
2018-06-18T23:17:19.766Z,19.93
2018-06-18T23:19:21.858Z,20.70
2018-06-18T23:21:23.903Z,21.87
2018-06-18T23:23:25.976Z,22.47
2018-06-18T23:25:28.013Z,22.50
2018-06-18T23:27:30.066Z,23.20
2018-06-18T23:29:32.139Z,23.27
2018-06-18T23:31:34.187Z,24.43
2018-06-18T23:33:36.249Z,24.23
2018-06-18T23:35:38.314Z,23.80
2018-06-18T23:37:40.382Z,23.13
2018-06-18T23:39:42.469Z,22.77
2018-06-18T23:41:47.001Z,24.13
2018-06-18T23:43:49.357Z,22.40
2018-06-18T23:45:51.412Z,23.87
2018-06-18T23:47:53.485Z,23.27
2018-06-18T23:49:55.548Z,23.60
2018-06-18T23:51:57.598Z,25.10
2018-06-18T23:53:59.658Z,24.27
2018-06-18T23:56:01.728Z,22.00
2018-06-18T23:58:03.818Z,22.30
